Nearby METAR Reports

 

KAVP - Avoca/Wilkes B., Pennsylvania, USA
Distance from station: N 16mi, 25km
Updated: 08/24/2019 5:54pm
Overcast
Overcast
 Wind from N
Wind: N 8 mph , 13 km/h
Temperature: 72°F , 22°C
Dew Point: 48°F , 9°C
Humidity: 44%
Barometer: 30.20 inHg , 1022.7 hPa
Clouds: Overcast
Visibility: 10 miles , 16 km
Cloud details: Overcast 6000 ft
2019/08/24 21:54 KAVP 242154Z 36007KT 10SM OVC060 22/09 A3020 RMK AO2 SLP223 T02220089
KMPO - Mt. Pocono, Pennsylvania, USA
Distance from station: E 20mi, 33km
Updated: 08/24/2019 5:53pm
Overcast
Overcast
 Wind from N
Wind: N 12 mph , 19 km/h
Temperature: 66°F , 19°C
Dew Point: 45°F , 7°C
Humidity: 46%
Barometer: 30.23 inHg , 1023.7 hPa
Clouds: Overcast
Visibility: 10 miles , 16 km
Cloud details: Overcast 5000 ft
2019/08/24 21:53 KMPO 242153Z AUTO 01010KT 10SM OVC050 19/07 A3023 RMK AO2 SLP235 T01890072
 
KABE - Allentown, Pennsylvania, USA
Distance from station: SSE 36mi, 58km
Updated: 08/24/2019 5:51pm
Overcast
Overcast
 Wind from NE
Wind: NE 8 mph , 13 km/h
Temperature: 75°F , 24°C
Dew Point: 50°F , 10°C
Humidity: 41%
Barometer: 30.18 inHg , 1022 hPa
Clouds: Overcast
Visibility: 10 miles , 16 km
Cloud details: Overcast 7000 ft
2019/08/24 21:51 KABE 242151Z 05007KT 10SM OVC070 24/10 A3018 RMK AO2 SLP218 T02440100
KXLL - Allentown Queen, Pennsylvania, USA
Distance from station: SSE 41mi, 65km
Updated: 08/24/2019 6:35pm
Overcast
Overcast
 Wind from E
Wind: E 6 mph , 9 km/h
Temperature: 72°F , 22°C
Dew Point: 32°F , 0°C
Humidity: 23%
Barometer: 30.19 inHg , 1022.4 hPa
Clouds: Overcast
Visibility: 10 miles , 16 km
Cloud details: Overcast 6500 ft
2019/08/24 22:35 KXLL 242235Z AUTO 10005KT 10SM OVC065 22/00 A3019 RMK AO2